Pagrindinis puslapis
METAR-TAF:

METAR-TAF

Oro uostai :

Chester, Konektikutas, Jungtinės Amerikos Valstijos

platuma: 41-23-02N, ilguma: 072-30-21W, Aukštis: 127 m

Dabartinis oras

Ataskaita buvo paskelbta 29 minutes, ne 06:55 UTC
Vėjas 8 kt iš Vakarų, svyruoja nuo Vakarų/Pietvakarių ir Šiaurės Vakarų
Temperatūra -2°C
Drėgmė 39%
Slėgis 1007 hPa
Matomumas: 16.1 km
Išsisklaidę debesys ne aukštis 5500 ft

METAR: KSNC 280655Z AUTO 27008KT 240V310 10SM SCT055 M02/M14 A2974 RMK AO2

Laikas: 02:24 (07:24 UTC)


TAF: trūkstamas

Orai ataskaitas ir orų prognozės (METAR, TAF).

turimą stotys yra geltonos ir raudonos taškus žemėlapyje.

Perkelti pele per norėdami pamatyti stoties vardą.

Tada spustelėkite, norėdami matyti oro stebėjimo ir prognozės.

Norėdami pakeisti žemėlapį: spustelėkite ant žalios mygtukų su juodo kryžiaus žemyn,; žalią mygtuką su brūkšneliu, jei norite nutolinti; arba žalių rodyklių gretimoms žemėlapius.


METAR-TAF: